Time;durP1;ratioP1;P1;durP2;ratioP2;P2;SDS_P1;SDS_P2;PMS_P1;PMS_P2;Temp;Humidity;BMP_temperature;BMP_pressure;BME280_temperature;BME280_humidity;BME280_pressure;Samples;Min_cycle;Max_cycle;Signal;HPM_P1;HPM_P2
2020/12/03 07:05:26;;;;;;;1999.90;999.90;;;;;;;-3.20;83.45;102304.43;1799338;78;28643;-60
2020/12/03 07:08:25;;;;;;;1999.90;999.90;;;;;;;-3.31;83.28;102298.89;1762570;80;20961;-61
2020/12/03 07:11:24;;;;;;;1999.90;999.90;;;;;;;-3.45;83.66;102300.45;1758260;80;22351;-72
2020/12/03 07:14:19;;;;;;;1999.90;999.90;;;;;;;-3.59;84.27;102310.14;1761252;80;20977;-61
2020/12/03 07:17:02;;;;;;;1999.90;999.90;;;;;;;-3.73;84.81;102304.59;1700798;83;21853;-61
2020/12/03 07:20:13;;;;;;;1999.90;999.90;;;;;;;-3.80;85.68;102309.84;1712016;82;20926;-68
2020/12/03 07:22:49;;;;;;;1999.90;999.90;;;;;;;-3.81;86.42;102312.72;1702500;82;20995;-62
2020/12/03 07:25:18;;;;;;;1999.90;999.90;;;;;;;-3.85;86.83;102326.25;1701933;83;21212;-61
2020/12/03 07:28:05;;;;;;;1999.90;999.90;;;;;;;-3.85;87.25;102319.49;1704925;82;21641;-61
2020/12/03 07:30:41;;;;;;;1999.90;999.90;;;;;;;-3.84;87.58;102315.27;1704299;83;21016;-71
2020/12/03 07:33:36;;;;;;;1999.90;999.90;;;;;;;-3.83;87.89;102312.89;1709064;83;21130;-61
2020/12/03 07:36:27;;;;;;;1999.90;999.90;;;;;;;-3.80;88.05;102311.70;1705569;83;21546;-70
2020/12/03 07:39:03;;;;;;;1999.90;999.90;;;;;;;-3.80;88.30;102310.35;1702798;82;21352;-69
2020/12/03 07:41:37;;;;;;;1999.90;999.90;;;;;;;-3.78;88.72;102307.81;1705032;83;21033;-71
2020/12/03 07:44:16;;;;;;;1999.90;999.90;;;;;;;-3.75;89.00;102310.69;1699113;82;21752;-62
2020/12/03 07:46:52;;;;;;;1999.90;999.90;;;;;;;-3.67;89.40;102306.61;1892853;75;28744;-73
2020/12/03 07:49:41;;;;;;;1999.90;999.90;;;;;;;-3.69;89.75;102305.94;1851820;77;20925;-63
2020/12/03 07:52:32;;;;;;;1999.90;999.90;;;;;;;-3.68;89.74;102302.21;1842261;77;22252;-62
2020/12/03 07:55:25;;;;;;;1999.90;999.90;;;;;;;-3.68;89.93;102304.92;1851048;77;21526;-70
2020/12/03 07:57:59;;;;;;;1999.90;999.90;;;;;;;-3.72;89.70;102306.28;1852575;76;20965;-61
2020/12/03 08:00:44;;;;;;;1999.90;999.90;;;;;;;-3.77;89.91;102308.15;1810209;77;20972;-62
2020/12/03 08:03:45;;;;;;;1999.90;999.90;;;;;;;-3.82;89.90;102305.11;1841726;77;20948;-69
2020/12/03 08:06:25;;;;;;;1999.90;999.90;;;;;;;-3.89;89.75;102301.41;1789587;80;21262;-61
2020/12/03 08:09:04;;;;;;;1999.90;999.90;;;;;;;-3.87;90.46;102305.29;1803415;78;20973;-61
2020/12/03 08:12:01;;;;;;;1999.90;999.90;;;;;;;-3.88;90.97;102306.30;1733886;80;21003;-61
2020/12/03 08:14:51;;;;;;;1999.90;999.90;;;;;;;-3.90;90.95;102299.20;1785554;78;20976;-61
2020/12/03 08:17:28;;;;;;;1999.90;999.90;;;;;;;-3.93;91.14;102304.95;1805971;79;21083;-61
2020/12/03 08:20:16;;;;;;;1999.90;999.90;;;;;;;-3.92;91.46;102294.98;1789524;79;22238;-72
2020/12/03 08:22:51;;;;;;;1999.90;999.90;;;;;;;-3.89;91.72;102304.11;1793964;78;20976;-61
2020/12/03 08:25:28;;;;;;;1999.90;999.90;;;;;;;-3.86;91.88;102302.41;1796073;79;21534;-61
2020/12/03 08:28:00;;;;;;;1999.90;999.90;;;;;;;-3.83;91.94;102290.41;1797431;79;21107;-62
2020/12/03 08:30:37;;;;;;;1999.90;999.90;;;;;;;-3.80;91.97;102294.97;1789263;79;20960;-61
2020/12/03 08:33:15;;;;;;;1999.90;999.90;;;;;;;-3.78;91.84;102294.80;1795660;79;21334;-70
2020/12/03 08:36:07;;;;;;;1999.90;999.90;;;;;;;-3.77;91.75;102290.56;1795027;79;20992;-61
2020/12/03 08:38:38;;;;;;;1999.90;999.90;;;;;;;-3.75;91.66;102291.23;1798664;79;20976;-61
2020/12/03 08:41:11;;;;;;;1999.90;999.90;;;;;;;-3.79;91.35;102283.12;1790722;79;21549;-67
2020/12/03 08:43:41;;;;;;;1999.90;999.90;;;;;;;-3.82;91.29;102273.16;1796072;78;20928;-71
2020/12/03 08:46:22;;;;;;;1999.90;999.90;;;;;;;-3.81;91.47;102281.10;1786364;79;21616;-71
2020/12/03 08:48:49;;;;;;;1999.90;999.90;;;;;;;-3.79;91.57;102280.42;1779990;79;21003;-71
2020/12/03 08:51:18;;;;;;;1999.90;999.90;;;;;;;-3.77;91.42;102285.16;1775983;79;20988;-62
2020/12/03 08:56:40;;;;;;;1999.90;999.90;;;;;;;-3.77;90.68;102281.09;1834826;76;28669;-61
2020/12/03 08:59:17;;;;;;;1999.90;999.90;;;;;;;-3.80;90.97;102276.03;1755093;79;21008;-61
2020/12/03 09:01:49;;;;;;;1999.90;999.90;;;;;;;-3.79;91.06;102271.46;1783939;79;21348;-61
2020/12/03 09:04:24;;;;;;;1999.90;999.90;;;;;;;-3.78;91.20;102267.23;1777497;79;21146;-69
2020/12/03 09:06:53;;;;;;;1999.90;999.90;;;;;;;-3.73;91.28;102265.36;1785346;79;20984;-70
2020/12/03 09:09:23;;;;;;;1999.90;999.90;;;;;;;-3.72;91.15;102267.89;1753469;79;21562;-70
2020/12/03 09:11:51;;;;;;;1999.90;999.90;;;;;;;-3.71;91.08;102264.17;1788293;79;21000;-61
2020/12/03 09:14:19;;;;;;;1999.90;999.90;;;;;;;-3.71;90.61;102266.03;1787247;79;21609;-70
2020/12/03 09:16:54;;;;;;;1999.90;999.90;;;;;;;-3.74;90.35;102259.10;1798915;79;21554;-61
2020/12/03 09:19:25;;;;;;;1999.90;999.90;;;;;;;-3.73;90.32;102264.84;1777333;79;21115;-71
2020/12/03 09:21:53;;;;;;;1999.90;999.90;;;;;;;-3.69;90.85;102266.19;1793512;79;21534;-62
2020/12/03 09:24:23;;;;;;;1999.90;999.90;;;;;;;-3.63;90.78;102261.44;1754888;79;21095;-70
2020/12/03 09:26:53;;;;;;;1999.90;999.90;;;;;;;-3.60;90.71;102261.09;1785796;79;21421;-61
2020/12/03 09:29:21;;;;;;;1999.90;999.90;;;;;;;-3.57;90.55;102258.03;1781543;79;21107;-61
2020/12/03 09:31:58;;;;;;;1999.90;999.90;;;;;;;-3.52;90.59;102258.02;1788830;79;21008;-61
2020/12/03 09:34:29;;;;;;;1999.90;999.90;;;;;;;-3.51;89.85;102260.55;1788034;79;21302;-64
2020/12/03 09:36:57;;;;;;;1999.90;999.90;;;;;;;-3.53;89.64;102257.69;1730963;82;20920;-61
2020/12/03 09:39:26;;;;;;;1999.90;999.90;;;;;;;-3.54;89.48;102253.29;1730418;81;21380;-61
2020/12/03 09:41:55;;;;;;;1999.90;999.90;;;;;;;-3.57;89.11;102252.62;1789237;79;21106;-61
2020/12/03 09:44:22;;;;;;;1999.90;999.90;;;;;;;-3.59;89.20;102256.02;1781871;79;21110;-70
2020/12/03 09:46:51;;;;;;;1999.90;999.90;;;;;;;-3.58;89.31;102247.38;1757568;79;20973;-71
2020/12/03 09:49:19;;;;;;;1999.90;999.90;;;;;;;-3.57;89.38;102251.27;1756065;79;21111;-61
2020/12/03 09:51:49;;;;;;;1999.90;999.90;;;;;;;-3.54;89.44;102256.00;1787652;79;21331;-70
2020/12/03 09:54:16;;;;;;;1999.90;999.90;;;;;;;-3.57;88.88;102252.62;1786606;79;21088;-61
2020/12/03 09:56:46;;;;;;;1999.90;999.90;;;;;;;-3.57;89.18;102255.84;1792336;79;21571;-61
2020/12/03 09:59:14;;;;;;;1999.90;999.90;;;;;;;-3.58;89.18;102250.94;1759254;79;21072;-71
2020/12/03 10:02:04;;;;;;;1999.90;999.90;;;;;;;-3.59;89.16;102250.59;1782334;79;21154;-61
2020/12/03 10:05:04;;;;;;;1999.90;999.90;;;;;;;-3.58;89.36;102248.73;1782213;79;21365;-70
2020/12/03 10:07:55;;;;;;;1999.90;999.90;;;;;;;-3.55;89.48;102246.19;1788007;79;21029;-70
2020/12/03 10:11:22;;;;;;;1999.90;999.90;;;;;;;-3.54;89.33;102234.34;1751733;81;20977;-71
2020/12/03 10:14:19;;;;;;;;;;;;;;;-3.57;89.40;102233.67;1781856;79;21526;-70
2020/12/03 10:16:47;;;;;;;1999.90;999.90;;;;;;;-3.62;89.45;102236.57;1783609;79;20163;-61
2020/12/03 10:19:14;;;;;;;1999.90;999.90;;;;;;;-3.69;89.17;102231.52;1718342;80;21339;-61
2020/12/03 10:21:46;;;;;;;1999.90;999.90;;;;;;;-3.74;89.03;102227.98;1756806;79;21613;-61
2020/12/03 10:24:20;;;;;;;1999.90;999.90;;;;;;;-3.74;89.17;102232.05;1759149;80;20976;-70
2020/12/03 10:27:19;;;;;;;1999.90;999.90;;;;;;;-3.75;88.77;102225.45;1767514;80;21587;-61
2020/12/03 10:30:07;;;;;;;1999.90;999.90;;;;;;;-3.77;89.01;102221.57;1762695;80;21051;-72
2020/12/03 10:32:35;;;;;;;1999.90;999.90;;;;;;;-3.75;89.11;102217.34;1767658;80;21450;-61
2020/12/03 10:35:03;;;;;;;1999.90;999.90;;;;;;;-3.73;89.41;102219.36;1746503;80;21530;-71
2020/12/03 10:37:35;;;;;;;1999.90;999.90;;;;;;;-3.68;89.77;102218.33;1781024;79;21235;-61
2020/12/03 10:40:19;;;;;;;1999.90;999.90;;;;;;;-3.65;89.84;102217.98;1783617;79;20898;-68
2020/12/03 10:42:52;;;;;;;1999.90;999.90;;;;;;;-3.61;89.75;102216.61;1759760;80;21675;-70
2020/12/03 10:45:26;;;;;;;1999.90;999.90;;;;;;;-3.57;89.33;102212.53;1753142;80;21587;-61
2020/12/03 10:48:14;;;;;;;1999.90;999.90;;;;;;;-3.53;89.12;102218.44;1757089;79;21000;-63
2020/12/03 10:50:55;;;;;;;1999.90;999.90;;;;;;;-3.53;88.49;102227.41;1737370;81;21544;-68
2020/12/03 10:53:29;;;;;;;1999.90;999.90;;;;;;;-3.55;88.35;102227.25;1777954;79;21419;-61
2020/12/03 10:56:07;;;;;;;1999.90;999.90;;;;;;;-3.55;88.39;102221.32;1775577;79;20971;-62
2020/12/03 11:01:44;;;;;;;1999.90;999.90;;;;;;;-3.51;88.41;102221.30;1820513;76;28248;-60
2020/12/03 11:04:12;;;;;;;1999.90;999.90;;;;;;;-3.56;88.12;102223.70;1790668;79;20937;-69
2020/12/03 11:06:40;;;;;;;1999.90;999.90;;;;;;;-3.53;88.38;102227.91;1803161;79;21358;-72
2020/12/03 11:09:09;;;;;;;1999.90;999.90;;;;;;;-3.49;88.49;102230.09;1807285;78;21099;-72
2020/12/03 11:11:37;;;;;;;1999.90;999.90;;;;;;;-3.49;88.50;102220.63;1779521;79;21562;-71
2020/12/03 11:14:09;;;;;;;1999.90;999.90;;;;;;;-3.50;88.33;102225.70;1791843;79;20945;-72
2020/12/03 11:16:40;;;;;;;1999.90;999.90;;;;;;;-3.48;88.82;102220.11;1797214;79;20925;-72
2020/12/03 11:19:15;;;;;;;1999.90;999.90;;;;;;;-3.47;88.81;102216.39;1780962;79;22261;-62
2020/12/03 11:21:42;;;;;;;1999.90;999.90;;;;;;;-3.44;89.08;102213.33;1794032;79;21565;-71
2020/12/03 11:24:21;;;;;;;1999.90;999.90;;;;;;;-3.41;88.72;102212.47;1757902;79;20988;-63
2020/12/03 11:26:49;;;;;;;1999.90;999.90;;;;;;;-3.40;88.78;102207.38;1798636;79;20961;-72
2020/12/03 11:29:17;;;;;;;1999.90;999.90;;;;;;;-3.39;88.37;102204.16;1793433;78;21063;-71
2020/12/03 11:31:45;;;;;;;1999.90;999.90;;;;;;;-3.41;88.18;102199.44;1799547;77;22230;-62
2020/12/03 11:34:13;;;;;;;1999.90;999.90;;;;;;;-3.42;88.14;102204.52;1803866;79;21116;-71
2020/12/03 11:36:44;;;;;;;1999.90;999.90;;;;;;;-3.45;87.90;102207.58;1799633;79;20954;-72
2020/12/03 11:39:11;;;;;;;1999.90;999.90;;;;;;;-3.46;87.86;102211.30;1751169;81;21095;-72
2020/12/03 11:49:24;;;;;;;1999.90;999.90;;;;;;;-3.39;88.01;102223.11;1807972;79;21590;-63
2020/12/03 11:51:53;;;;;;;1999.90;999.90;;;;;;;-3.34;88.13;102218.02;1802129;79;21518;-62
2020/12/03 11:54:28;;;;;;;1999.90;999.90;;;;;;;-3.31;87.92;102218.50;1808663;79;20980;-71
2020/12/03 11:56:57;;;;;;;1999.90;999.90;;;;;;;-3.33;87.12;102224.61;1804780;79;22150;-62
2020/12/03 11:59:32;;;;;;;1999.90;999.90;;;;;;;-3.37;87.24;102224.62;1801450;79;21676;-72
2020/12/03 12:02:03;;;;;;;1999.90;999.90;;;;;;;-3.35;87.50;102229.86;1797725;78;20980;-63
2020/12/03 12:04:41;;;;;;;1999.90;999.90;;;;;;;-3.32;87.65;102226.30;1793700;79;21438;-71
2020/12/03 12:09:58;;;;;;;1999.90;999.90;;;;;;;-3.33;87.33;102225.96;1792081;79;21246;-62
2020/12/03 12:12:22;;;;;;;1999.90;999.90;;;;;;;-3.35;87.12;102227.16;1795523;79;20997;-72
2020/12/03 12:14:49;;;;;;;1999.90;999.90;;;;;;;-3.33;87.52;102223.77;1793579;79;21124;-71
2020/12/03 12:17:19;;;;;;;1999.90;999.90;;;;;;;-3.30;87.47;102225.61;1789884;79;21004;-71
2020/12/03 12:19:49;;;;;;;1999.90;999.90;;;;;;;-3.30;87.00;102219.34;1782950;79;21551;-62
2020/12/03 12:22:16;;;;;;;1999.90;999.90;;;;;;;-3.31;87.10;102221.72;1805590;79;21186;-72
2020/12/03 12:24:45;;;;;;;1999.90;999.90;;;;;;;-3.33;86.86;102227.31;1792661;79;21550;-72
2020/12/03 12:27:13;;;;;;;1999.90;999.90;;;;;;;-3.32;86.97;102224.09;1799129;79;20945;-72
2020/12/03 12:29:41;;;;;;;1999.90;999.90;;;;;;;-3.33;86.76;102228.67;1796899;79;20961;-62
2020/12/03 12:32:09;;;;;;;1999.90;999.90;;;;;;;-3.32;86.74;102234.41;1755967;79;21143;-72
2020/12/03 12:34:37;;;;;;;1999.90;999.90;;;;;;;-3.29;86.82;102240.83;1785802;79;22299;-63
2020/12/03 12:37:05;;;;;;;1999.90;999.90;;;;;;;-3.27;86.76;102239.30;1799338;79;20930;-62
2020/12/03 12:39:34;;;;;;;1999.90;999.90;;;;;;;-3.28;86.77;102237.11;1799850;78;21586;-62
2020/12/03 12:42:04;;;;;;;1999.90;999.90;;;;;;;-3.30;86.58;102239.14;1799773;79;20890;-71
2020/12/03 12:44:32;;;;;;;1999.90;999.90;;;;;;;-3.31;86.58;102224.43;1753488;81;21511;-72
2020/12/03 12:47:01;;;;;;;1999.90;999.90;;;;;;;-3.32;86.66;102231.71;1781304;80;22701;-63
2020/12/03 12:49:29;;;;;;;1999.90;999.90;;;;;;;-3.30;86.85;102232.38;1799614;79;21644;-62
2020/12/03 12:51:57;;;;;;;1999.90;999.90;;;;;;;-3.29;86.66;102239.98;1772009;80;20996;-72
2020/12/03 12:54:25;;;;;;;1999.90;999.90;;;;;;;-3.28;86.52;102243.03;1755345;80;21602;-63
2020/12/03 12:56:54;;;;;;;1999.90;999.90;;;;;;;-3.34;86.12;102241.03;1765414;80;21523;-72
2020/12/03 12:59:22;;;;;;;1999.90;999.90;;;;;;;-3.35;86.40;102251.52;1787789;79;21376;-72
2020/12/03 13:01:50;;;;;;;1999.90;999.90;;;;;;;-3.35;86.51;102250.17;1800497;79;20965;-72
2020/12/03 13:04:21;;;;;;;1999.90;999.90;;;;;;;-3.34;86.55;102251.86;1807268;79;21553;-62
2020/12/03 13:06:49;;;;;;;1999.90;999.90;;;;;;;-3.35;86.23;102248.31;1794785;79;20914;-65
2020/12/03 13:09:17;;;;;;;1999.90;999.90;;;;;;;-3.34;86.49;102248.64;1787139;79;21087;-62
2020/12/03 13:11:47;;;;;;;1999.90;999.90;;;;;;;-3.29;86.72;102249.47;1802819;79;21187;-62
2020/12/03 13:14:15;;;;;;;1999.90;999.90;;;;;;;-3.27;86.14;102250.13;1803045;78;20921;-72
2020/12/03 13:16:43;;;;;;;1999.90;999.90;;;;;;;-3.27;85.98;102253.69;1796544;79;21142;-63
2020/12/03 13:19:11;;;;;;;1999.90;999.90;;;;;;;-3.26;86.01;102251.82;1806907;79;20964;-63
2020/12/03 13:21:39;;;;;;;1999.90;999.90;;;;;;;-3.27;85.72;102250.13;1797439;79;21507;-69
2020/12/03 13:24:07;;;;;;;1999.90;999.90;;;;;;;-3.31;85.20;102242.88;1806994;78;21348;-72
2020/12/03 13:26:35;;;;;;;1999.90;999.90;;;;;;;-3.35;85.03;102236.63;1798169;79;20978;-72
2020/12/03 13:29:03;;;;;;;1999.90;999.90;;;;;;;-3.37;85.17;102235.97;1808183;79;21123;-62
2020/12/03 13:31:31;;;;;;;1999.90;999.90;;;;;;;-3.38;85.47;102237.83;1801114;79;21143;-73
2020/12/03 13:33:59;;;;;;;1999.90;999.90;;;;;;;-3.37;85.04;102243.58;1797294;79;20909;-69
2020/12/03 13:36:27;;;;;;;1999.90;999.90;;;;;;;-3.35;85.36;102241.54;1796994;79;21590;-70
2020/12/03 13:38:55;;;;;;;1999.90;999.90;;;;;;;-3.33;84.86;102244.07;1800119;79;21102;-63
2020/12/03 13:41:23;;;;;;;1999.90;999.90;;;;;;;-3.36;84.22;102245.78;1796987;79;21093;-63
2020/12/03 13:43:50;;;;;;;1999.90;999.90;;;;;;;-3.36;84.29;102249.84;1798681;79;20953;-72
2020/12/03 13:46:18;;;;;;;1999.90;999.90;;;;;;;-3.36;84.49;102247.97;1795459;79;20965;-72
2020/12/03 13:48:46;;;;;;;1999.90;999.90;;;;;;;-3.34;84.46;102239.67;1797321;79;22642;-73
2020/12/03 13:51:14;;;;;;;1999.90;999.90;;;;;;;-3.34;84.07;102238.32;1796495;78;20968;-63
2020/12/03 13:53:43;;;;;;;1999.90;999.90;;;;;;;-3.33;84.00;102238.66;1787408;79;20972;-63
2020/12/03 13:56:11;;;;;;;1999.90;999.90;;;;;;;-3.32;84.01;102241.70;1801718;79;20945;-63
2020/12/03 13:58:39;;;;;;;1999.90;999.90;;;;;;;-3.29;83.66;102249.47;1787251;79;21103;-72
2020/12/03 14:01:07;;;;;;;1999.90;999.90;;;;;;;-3.30;83.41;102243.20;1797082;79;21352;-72
2020/12/03 14:03:35;;;;;;;1999.90;999.90;;;;;;;-3.29;83.03;102237.28;1778731;79;20941;-72
2020/12/03 14:06:03;;;;;;;1999.90;999.90;;;;;;;-3.31;83.13;102228.49;1788650;79;20977;-72
2020/12/03 14:08:31;;;;;;;1999.90;999.90;;;;;;;-3.33;82.64;102234.08;1779616;79;21096;-73
2020/12/03 14:11:00;;;;;;;1999.90;999.90;;;;;;;-3.35;82.59;102236.13;1793544;79;21507;-70
2020/12/03 14:16:28;;;;;;;1999.90;999.90;;;;;;;-3.30;82.45;102228.83;1807553;78;28800;-62
2020/12/03 14:18:56;;;;;;;1999.90;999.90;;;;;;;-3.37;82.11;102232.75;1784014;80;21067;-70
2020/12/03 14:21:24;;;;;;;1999.90;999.90;;;;;;;-3.36;82.31;102234.95;1772909;80;21178;-61
2020/12/03 14:23:52;;;;;;;1999.90;999.90;;;;;;;-3.36;82.11;102234.95;1773735;80;21160;-61
2020/12/03 14:26:20;;;;;;;1999.90;999.90;;;;;;;-3.36;82.28;102229.53;1780517;79;21053;-71
2020/12/03 14:28:48;;;;;;;1999.90;999.90;;;;;;;-3.36;82.49;102229.02;1775265;79;21107;-62
2020/12/03 14:31:16;;;;;;;1999.90;999.90;;;;;;;-3.35;82.46;102232.06;1769214;80;20945;-70
2020/12/03 14:33:44;;;;;;;1999.90;999.90;;;;;;;-3.34;82.28;102224.78;1759189;80;21219;-61
2020/12/03 14:36:12;;;;;;;1999.90;999.90;;;;;;;-3.34;82.09;102230.20;1770616;80;21136;-71
2020/12/03 14:38:40;;;;;;;1999.90;999.90;;;;;;;-3.33;82.16;102232.73;1773056;80;21139;-71
2020/12/03 14:41:07;;;;;;;1999.90;999.90;;;;;;;-3.33;82.10;102230.02;1768820;80;21044;-62
2020/12/03 14:43:35;;;;;;;1999.90;999.90;;;;;;;-3.33;81.98;102219.19;1760901;80;21122;-62
2020/12/03 14:46:06;;;;;;;1999.90;999.90;;;;;;;-3.33;81.52;102221.05;1772747;80;21362;-62
2020/12/03 14:48:34;;;;;;;1999.90;999.90;;;;;;;-3.32;81.85;102220.03;1772021;79;21004;-63
2020/12/03 15:05:54;;;;;;;1999.90;999.90;;;;;;;-2.89;80.72;102203.70;1819794;75;22684;-71
2020/12/03 15:08:22;;;;;;;1999.90;999.90;;;;;;;-3.00;80.64;102210.88;1802765;78;21530;-61
2020/12/03 15:10:54;;;;;;;1999.90;999.90;;;;;;;-3.07;80.72;102208.05;1793793;79;21141;-61
2020/12/03 15:13:20;;;;;;;1999.90;999.90;;;;;;;-3.13;80.57;102200.64;1786058;79;20937;-70
2020/12/03 15:15:49;;;;;;;1999.90;999.90;;;;;;;-3.17;80.86;102206.59;1792662;79;21139;-62
2020/12/03 15:18:17;;;;;;;1999.90;999.90;;;;;;;-3.22;80.86;102200.86;1786868;79;21977;-70
2020/12/03 15:20:45;;;;;;;1999.90;999.90;;;;;;;-3.23;81.22;102198.66;1794747;79;20949;-69
2020/12/03 15:23:14;;;;;;;1999.90;999.90;;;;;;;-3.24;81.68;102199.69;1786856;79;21576;-61
2020/12/03 15:25:44;;;;;;;1999.90;999.90;;;;;;;-3.25;81.31;102199.35;1793008;79;20969;-70
2020/12/03 15:28:12;;;;;;;1999.90;999.90;;;;;;;-3.26;81.27;102201.22;1799327;79;21012;-61
2020/12/03 15:30:40;;;;;;;1999.90;999.90;;;;;;;-3.26;81.29;102200.38;1793253;79;21566;-61
2020/12/03 15:33:08;;;;;;;1999.90;999.90;;;;;;;-3.27;81.05;102209.52;1763034;79;21016;-61
2020/12/03 15:35:37;;;;;;;1999.90;999.90;;;;;;;-3.29;81.17;102215.11;1792693;79;22239;-69
2020/12/03 15:38:05;;;;;;;1999.90;999.90;;;;;;;-3.28;81.04;102220.02;1763456;79;21113;-61
2020/12/03 15:40:33;;;;;;;1999.90;999.90;;;;;;;-3.29;80.66;102219.17;1795367;79;21609;-61
2020/12/03 15:43:01;;;;;;;1999.90;999.90;;;;;;;-3.30;80.43;102220.70;1791926;79;21804;-70
2020/12/03 15:45:29;;;;;;;1999.90;999.90;;;;;;;-3.31;80.55;102216.30;1769757;79;21083;-61
2020/12/03 15:48:24;;;;;;;1999.90;999.90;;;;;;;-3.32;80.30;102220.03;1789116;79;21351;-61
2020/12/03 15:50:55;;;;;;;1999.90;999.90;;;;;;;-3.33;80.46;102221.90;1794382;79;21107;-61
2020/12/03 15:53:23;;;;;;;1999.90;999.90;;;;;;;-3.33;80.78;102218.35;1786974;79;21589;-69
2020/12/03 15:55:52;;;;;;;1999.90;999.90;;;;;;;-3.34;80.92;102226.14;1795105;79;21127;-70
2020/12/03 15:58:20;;;;;;;1999.90;999.90;;;;;;;-3.36;80.64;102219.55;1798802;79;20997;-70
2020/12/03 16:00:48;;;;;;;1999.90;999.90;;;;;;;-3.35;80.56;102221.23;1792620;79;22159;-61
2020/12/03 16:03:16;;;;;;;1999.90;999.90;;;;;;;-3.36;80.57;102217.34;1787332;79;20996;-61
2020/12/03 16:05:44;;;;;;;1999.90;999.90;;;;;;;-3.37;80.49;102211.09;1800904;78;20979;-61
2020/12/03 16:08:12;;;;;;;1999.90;999.90;;;;;;;-3.39;80.02;102210.94;1811743;78;21004;-61
2020/12/03 16:10:40;;;;;;;1999.90;999.90;;;;;;;-3.39;80.28;102215.84;1806956;78;21098;-70
2020/12/03 16:13:08;;;;;;;1999.90;999.90;;;;;;;-3.39;80.64;102217.70;1799582;78;21422;-61
2020/12/03 16:15:36;;;;;;;1999.90;999.90;;;;;;;-3.41;80.24;102218.39;1804931;78;20968;-63
2020/12/03 16:18:04;;;;;;;1999.90;999.90;;;;;;;-3.40;80.58;102222.27;1802510;78;21534;-70
2020/12/03 16:20:32;;;;;;;1999.90;999.90;;;;;;;-3.40;80.23;102224.14;1803822;78;21103;-70
2020/12/03 16:23:00;;;;;;;1999.90;999.90;;;;;;;-3.42;80.21;102220.25;1798625;78;20996;-71
2020/12/03 16:25:28;;;;;;;1999.90;999.90;;;;;;;-3.43;80.27;102207.73;1804914;78;21364;-70
2020/12/03 16:27:56;;;;;;;1999.90;999.90;;;;;;;-3.44;80.33;102214.17;1798256;78;21016;-70
2020/12/03 16:30:23;;;;;;;1999.90;999.90;;;;;;;-3.44;80.25;102212.81;1803224;78;21623;-70
2020/12/03 16:32:51;;;;;;;1999.90;999.90;;;;;;;-3.42;80.70;102214.84;1799127;78;21552;-71
2020/12/03 16:35:19;;;;;;;1999.90;999.90;;;;;;;-3.42;80.61;102209.42;1807534;78;21098;-62
2020/12/03 16:37:48;;;;;;;1999.90;999.90;;;;;;;-3.40;80.47;102203.83;1804509;78;21355;-71
2020/12/03 16:40:15;;;;;;;1999.90;999.90;;;;;;;-3.39;80.11;102206.87;1804922;78;21149;-62
2020/12/03 16:42:44;;;;;;;1999.90;999.90;;;;;;;-3.37;80.49;102200.27;1798626;78;21134;-62
2020/12/03 16:45:12;;;;;;;1999.90;999.90;;;;;;;-3.36;80.43;102206.01;1804516;78;20964;-64
2020/12/03 16:47:40;;;;;;;1999.90;999.90;;;;;;;-3.35;80.29;102202.28;1797293;78;20969;-62
2020/12/03 16:50:08;;;;;;;1999.90;999.90;;;;;;;-3.32;80.24;102202.44;1805022;78;21195;-71
2020/12/03 16:52:36;;;;;;;1999.90;999.90;;;;;;;-3.33;80.36;102209.72;1800639;78;21130;-62
2020/12/03 16:55:04;;;;;;;1999.90;999.90;;;;;;;-3.32;80.38;102206.50;1802155;78;20973;-62
2020/12/03 16:57:33;;;;;;;1999.90;999.90;;;;;;;-3.32;80.30;102208.70;1797466;78;21003;-70
2020/12/03 17:00:01;;;;;;;1999.90;999.90;;;;;;;-3.29;80.40;102212.91;1803623;78;21011;-70
2020/12/03 17:02:29;;;;;;;1999.90;999.90;;;;;;;-3.27;79.93;102213.58;1800500;78;21151;-71
2020/12/03 17:04:57;;;;;;;1999.90;999.90;;;;;;;-3.26;79.81;102212.55;1803774;78;21509;-71
2020/12/03 17:07:25;;;;;;;1999.90;999.90;;;;;;;-3.24;79.64;102213.23;1799223;78;21564;-71
2020/12/03 17:09:55;;;;;;;1999.90;999.90;;;;;;;-3.25;79.68;102206.13;1805119;78;21087;-71
2020/12/03 17:12:23;;;;;;;1999.90;999.90;;;;;;;-3.25;79.51;102216.95;1798659;78;20961;-70
2020/12/03 17:14:51;;;;;;;1999.90;999.90;;;;;;;-3.29;79.31;102216.98;1809087;78;21363;-64
2020/12/03 17:17:19;;;;;;;1999.90;999.90;;;;;;;-3.31;79.41;102225.27;1802585;78;20996;-62
2020/12/03 17:19:48;;;;;;;1999.90;999.90;;;;;;;-3.35;79.60;102221.23;1805286;78;21189;-71
2020/12/03 17:22:16;;;;;;;1999.90;999.90;;;;;;;-3.35;79.51;102212.27;1775557;78;21138;-71
2020/12/03 17:24:44;;;;;;;1999.90;999.90;;;;;;;-3.38;79.57;102216.17;1809706;78;21514;-71
2020/12/03 17:27:13;;;;;;;1999.90;999.90;;;;;;;-3.39;79.43;102213.13;1800845;78;21188;-62
2020/12/03 17:29:41;;;;;;;1999.90;999.90;;;;;;;-3.39;79.50;102210.94;1803673;78;20972;-71
2020/12/03 17:32:09;;;;;;;1999.90;999.90;;;;;;;-3.39;79.60;102217.70;1801724;78;21131;-62
2020/12/03 17:34:37;;;;;;;1999.90;999.90;;;;;;;-3.40;79.82;102215.50;1804899;78;21431;-62
2020/12/03 17:37:06;;;;;;;1999.90;999.90;;;;;;;-3.39;79.60;102220.41;1800553;78;21142;-62
2020/12/03 17:39:34;;;;;;;1999.90;999.90;;;;;;;-3.40;79.33;102218.72;1803626;78;21225;-69
2020/12/03 17:42:04;;;;;;;1999.90;999.90;;;;;;;-3.39;79.39;102222.61;1804601;78;20984;-62
2020/12/03 17:44:32;;;;;;;1999.90;999.90;;;;;;;-3.38;79.50;102231.57;1801057;78;20965;-62
2020/12/03 17:47:00;;;;;;;1999.90;999.90;;;;;;;-3.38;79.28;102231.57;1810315;77;21123;-71
2020/12/03 17:49:28;;;;;;;1999.90;999.90;;;;;;;-3.37;79.03;102239.52;1803481;78;21502;-62
2020/12/03 17:51:56;;;;;;;1999.90;999.90;;;;;;;-3.36;78.89;102239.01;1802165;78;21194;-71
2020/12/03 17:54:24;;;;;;;1999.90;999.90;;;;;;;-3.37;78.52;102235.45;1806183;78;21656;-71
2020/12/03 17:57:01;;;;;;;1999.90;999.90;;;;;;;-3.36;78.87;102243.06;1811081;78;20984;-71
2020/12/03 17:59:29;;;;;;;1999.90;999.90;;;;;;;-3.35;78.54;102237.98;1803261;78;21083;-70
2020/12/03 18:01:58;;;;;;;1999.90;999.90;;;;;;;-3.35;78.00;102235.28;1812246;77;20992;-62
2020/12/03 18:04:26;;;;;;;1999.90;999.90;;;;;;;-3.36;78.57;102230.37;1809192;78;22347;-70
2020/12/03 18:06:55;;;;;;;1999.90;999.90;;;;;;;-3.33;78.81;102234.08;1802691;78;21177;-62
2020/12/03 18:09:25;;;;;;;1999.90;999.90;;;;;;;-3.35;78.53;102232.58;1801421;78;21130;-71
2020/12/03 18:11:53;;;;;;;1999.90;999.90;;;;;;;-3.34;78.63;102238.32;1810722;78;21522;-71
2020/12/03 18:14:22;;;;;;;1999.90;999.90;;;;;;;-3.35;78.51;102236.13;1806385;78;21150;-62
2020/12/03 18:16:49;;;;;;;1999.90;999.90;;;;;;;-3.33;78.63;102238.66;1808841;78;21193;-63
2020/12/03 18:19:17;;;;;;;1999.90;999.90;;;;;;;-3.34;78.62;102232.91;1802087;78;21546;-70
2020/12/03 18:21:46;;;;;;;1999.90;999.90;;;;;;;-3.34;78.42;102235.61;1800640;78;20952;-71
2020/12/03 18:24:14;;;;;;;1999.90;999.90;;;;;;;-3.33;78.71;102237.30;1801785;78;20956;-71
2020/12/03 18:26:42;;;;;;;1999.90;999.90;;;;;;;-3.33;78.32;102237.30;1807386;78;21084;-62
2020/12/03 18:29:10;;;;;;;1999.90;999.90;;;;;;;-3.33;78.80;102227.83;1806094;78;21667;-62
2020/12/03 18:31:39;;;;;;;1999.90;999.90;;;;;;;-3.33;78.69;102231.89;1802468;78;20992;-71
2020/12/03 18:34:08;;;;;;;1999.90;999.90;;;;;;;-3.33;78.76;102234.59;1798765;78;21527;-71
2020/12/03 18:36:40;;;;;;;1999.90;999.90;;;;;;;-3.32;78.86;102233.58;1798930;78;21091;-62
2020/12/03 18:39:11;;;;;;;1999.90;999.90;;;;;;;-3.32;78.81;102233.06;1803954;78;21514;-71
2020/12/03 18:41:54;;;;;;;1999.90;999.90;;;;;;;-3.31;78.62;102223.92;1808466;78;21484;-71
2020/12/03 18:44:20;;;;;;;1999.90;999.90;;;;;;;-3.31;78.47;102219.02;1802482;78;20953;-62
2020/12/03 18:46:51;;;;;;;1999.90;999.90;;;;;;;-3.31;78.43;102214.44;1809122;78;20964;-62